sensor_id;sensor_type;location;lat;lon;timestamp;temperature;humidity
27671;DHT22;15077;49.704;9.908;2023-04-25T00:01:35;12.10;65.40
27671;DHT22;15077;49.704;9.908;2023-04-25T00:04:05;12.10;66.00
27671;DHT22;15077;49.704;9.908;2023-04-25T00:06:34;12.10;65.60
27671;DHT22;15077;49.704;9.908;2023-04-25T00:09:04;12.10;65.80
27671;DHT22;15077;49.704;9.908;2023-04-25T00:11:34;12.10;65.80
27671;DHT22;15077;49.704;9.908;2023-04-25T00:14:01;12.10;65.60
27671;DHT22;15077;49.704;9.908;2023-04-25T00:16:29;12.10;65.70
27671;DHT22;15077;49.704;9.908;2023-04-25T00:18:59;12.10;65.70
27671;DHT22;15077;49.704;9.908;2023-04-25T00:21:25;12.10;65.70
27671;DHT22;15077;49.704;9.908;2023-04-25T00:23:52;12.10;65.80
27671;DHT22;15077;49.704;9.908;2023-04-25T00:26:19;12.10;65.80
27671;DHT22;15077;49.704;9.908;2023-04-25T00:28:48;12.10;65.80
27671;DHT22;15077;49.704;9.908;2023-04-25T00:31:16;12.00;65.80
27671;DHT22;15077;49.704;9.908;2023-04-25T00:33:43;12.00;65.80
27671;DHT22;15077;49.704;9.908;2023-04-25T00:36:09;12.00;65.60
27671;DHT22;15077;49.704;9.908;2023-04-25T00:38:35;12.00;65.70
27671;DHT22;15077;49.704;9.908;2023-04-25T00:41:01;12.00;65.70
27671;DHT22;15077;49.704;9.908;2023-04-25T00:43:27;12.00;65.70
27671;DHT22;15077;49.704;9.908;2023-04-25T00:45:54;12.00;65.70
27671;DHT22;15077;49.704;9.908;2023-04-25T00:48:23;12.00;65.70
27671;DHT22;15077;49.704;9.908;2023-04-25T00:50:52;12.00;65.60
27671;DHT22;15077;49.704;9.908;2023-04-25T00:53:22;12.00;65.90
27671;DHT22;15077;49.704;9.908;2023-04-25T00:55:52;12.00;65.60
27671;DHT22;15077;49.704;9.908;2023-04-25T00:58:20;12.00;65.60
27671;DHT22;15077;49.704;9.908;2023-04-25T01:00:49;12.00;65.60
27671;DHT22;15077;49.704;9.908;2023-04-25T01:03:19;12.00;65.50
27671;DHT22;15077;49.704;9.908;2023-04-25T01:05:48;12.00;65.40
27671;DHT22;15077;49.704;9.908;2023-04-25T01:08:16;12.00;65.50
27671;DHT22;15077;49.704;9.908;2023-04-25T01:10:46;11.90;65.50
27671;DHT22;15077;49.704;9.908;2023-04-25T01:13:12;11.90;65.50
27671;DHT22;15077;49.704;9.908;2023-04-25T01:15:38;11.90;65.50
27671;DHT22;15077;49.704;9.908;2023-04-25T01:18:06;11.90;65.50
27671;DHT22;15077;49.704;9.908;2023-04-25T01:20:34;11.80;65.60
27671;DHT22;15077;49.704;9.908;2023-04-25T01:23:02;11.80;65.60
27671;DHT22;15077;49.704;9.908;2023-04-25T01:25:30;11.80;65.70
27671;DHT22;15077;49.704;9.908;2023-04-25T01:27:59;11.80;66.00
27671;DHT22;15077;49.704;9.908;2023-04-25T01:30:27;11.80;66.00
27671;DHT22;15077;49.704;9.908;2023-04-25T01:32:56;11.80;66.10
27671;DHT22;15077;49.704;9.908;2023-04-25T01:35:23;11.80;66.20
27671;DHT22;15077;49.704;9.908;2023-04-25T01:37:50;11.80;66.40
27671;DHT22;15077;49.704;9.908;2023-04-25T01:40:17;11.70;66.70
27671;DHT22;15077;49.704;9.908;2023-04-25T01:42:47;11.70;66.70
27671;DHT22;15077;49.704;9.908;2023-04-25T01:45:14;11.70;66.80
27671;DHT22;15077;49.704;9.908;2023-04-25T01:47:41;11.70;66.80
27671;DHT22;15077;49.704;9.908;2023-04-25T01:50:09;11.70;66.70
27671;DHT22;15077;49.704;9.908;2023-04-25T01:52:36;11.70;66.80
27671;DHT22;15077;49.704;9.908;2023-04-25T01:55:02;11.70;66.70
27671;DHT22;15077;49.704;9.908;2023-04-25T01:57:29;11.60;66.90
27671;DHT22;15077;49.704;9.908;2023-04-25T02:00:02;11.60;66.80
27671;DHT22;15077;49.704;9.908;2023-04-25T02:02:32;11.70;66.90
27671;DHT22;15077;49.704;9.908;2023-04-25T02:05:03;11.60;66.70
27671;DHT22;15077;49.704;9.908;2023-04-25T02:07:30;11.70;66.60
27671;DHT22;15077;49.704;9.908;2023-04-25T02:09:57;11.70;66.80
27671;DHT22;15077;49.704;9.908;2023-04-25T02:12:24;11.70;66.60
27671;DHT22;15077;49.704;9.908;2023-04-25T02:14:51;11.70;67.20
27671;DHT22;15077;49.704;9.908;2023-04-25T02:17:18;11.60;66.50
27671;DHT22;15077;49.704;9.908;2023-04-25T02:19:44;11.60;66.50
27671;DHT22;15077;49.704;9.908;2023-04-25T02:22:11;11.60;66.60
27671;DHT22;15077;49.704;9.908;2023-04-25T02:24:39;11.60;66.60
27671;DHT22;15077;49.704;9.908;2023-04-25T02:27:06;11.60;66.70
27671;DHT22;15077;49.704;9.908;2023-04-25T02:29:34;11.60;66.70
27671;DHT22;15077;49.704;9.908;2023-04-25T02:32:00;11.60;66.80
27671;DHT22;15077;49.704;9.908;2023-04-25T02:34:26;11.60;66.80
27671;DHT22;15077;49.704;9.908;2023-04-25T02:36:53;11.60;66.90
27671;DHT22;15077;49.704;9.908;2023-04-25T02:39:24;11.50;66.80
27671;DHT22;15077;49.704;9.908;2023-04-25T02:41:52;11.50;66.90
27671;DHT22;15077;49.704;9.908;2023-04-25T02:44:19;11.50;66.90
27671;DHT22;15077;49.704;9.908;2023-04-25T02:46:47;11.50;66.90
27671;DHT22;15077;49.704;9.908;2023-04-25T02:49:14;11.40;66.80
27671;DHT22;15077;49.704;9.908;2023-04-25T02:51:40;11.40;66.80
27671;DHT22;15077;49.704;9.908;2023-04-25T02:54:07;11.40;66.80
27671;DHT22;15077;49.704;9.908;2023-04-25T02:56:37;11.40;66.80
27671;DHT22;15077;49.704;9.908;2023-04-25T02:59:05;11.40;66.90
27671;DHT22;15077;49.704;9.908;2023-04-25T03:01:32;11.30;66.80
27671;DHT22;15077;49.704;9.908;2023-04-25T03:03:58;11.30;66.80
27671;DHT22;15077;49.704;9.908;2023-04-25T03:06:26;11.30;66.90
27671;DHT22;15077;49.704;9.908;2023-04-25T03:08:52;11.30;66.90
27671;DHT22;15077;49.704;9.908;2023-04-25T03:11:18;11.30;66.80
27671;DHT22;15077;49.704;9.908;2023-04-25T03:13:45;11.30;66.80
27671;DHT22;15077;49.704;9.908;2023-04-25T03:16:12;11.30;66.80
27671;DHT22;15077;49.704;9.908;2023-04-25T03:18:39;11.30;66.80
27671;DHT22;15077;49.704;9.908;2023-04-25T03:21:07;11.30;66.80
27671;DHT22;15077;49.704;9.908;2023-04-25T03:23:35;11.30;66.70
27671;DHT22;15077;49.704;9.908;2023-04-25T03:26:02;11.30;66.70
27671;DHT22;15077;49.704;9.908;2023-04-25T03:28:29;11.30;66.70
27671;DHT22;15077;49.704;9.908;2023-04-25T03:30:59;11.30;66.70
27671;DHT22;15077;49.704;9.908;2023-04-25T03:33:26;11.30;66.60
27671;DHT22;15077;49.704;9.908;2023-04-25T03:35:53;11.40;66.80
27671;DHT22;15077;49.704;9.908;2023-04-25T03:38:21;11.30;66.80
27671;DHT22;15077;49.704;9.908;2023-04-25T03:40:47;11.40;66.80
27671;DHT22;15077;49.704;9.908;2023-04-25T03:43:13;11.40;66.80
27671;DHT22;15077;49.704;9.908;2023-04-25T03:45:40;11.30;66.70
27671;DHT22;15077;49.704;9.908;2023-04-25T03:48:06;11.40;66.70
27671;DHT22;15077;49.704;9.908;2023-04-25T03:50:32;11.40;66.80
27671;DHT22;15077;49.704;9.908;2023-04-25T03:52:58;11.40;66.90
27671;DHT22;15077;49.704;9.908;2023-04-25T03:55:23;11.40;66.80
27671;DHT22;15077;49.704;9.908;2023-04-25T03:57:49;11.40;66.90
27671;DHT22;15077;49.704;9.908;2023-04-25T04:00:15;11.40;66.80
27671;DHT22;15077;49.704;9.908;2023-04-25T04:02:41;11.40;66.80
27671;DHT22;15077;49.704;9.908;2023-04-25T04:05:07;11.40;66.80
27671;DHT22;15077;49.704;9.908;2023-04-25T04:07:33;11.40;66.90
27671;DHT22;15077;49.704;9.908;2023-04-25T04:10:01;11.40;66.90
27671;DHT22;15077;49.704;9.908;2023-04-25T04:12:27;11.40;66.90
27671;DHT22;15077;49.704;9.908;2023-04-25T04:14:54;11.40;66.90
27671;DHT22;15077;49.704;9.908;2023-04-25T04:17:20;11.40;66.90
27671;DHT22;15077;49.704;9.908;2023-04-25T04:19:46;11.40;66.90
27671;DHT22;15077;49.704;9.908;2023-04-25T04:22:11;11.30;67.00
27671;DHT22;15077;49.704;9.908;2023-04-25T04:24:37;11.40;67.10
27671;DHT22;15077;49.704;9.908;2023-04-25T04:27:03;11.40;67.00
27671;DHT22;15077;49.704;9.908;2023-04-25T04:29:29;11.40;67.10
27671;DHT22;15077;49.704;9.908;2023-04-25T04:31:55;11.40;67.10
27671;DHT22;15077;49.704;9.908;2023-04-25T04:34:20;11.30;67.10
27671;DHT22;15077;49.704;9.908;2023-04-25T04:36:46;11.30;67.20
27671;DHT22;15077;49.704;9.908;2023-04-25T04:39:13;11.30;67.20
27671;DHT22;15077;49.704;9.908;2023-04-25T04:41:39;11.30;67.20
27671;DHT22;15077;49.704;9.908;2023-04-25T04:44:05;11.30;67.40
27671;DHT22;15077;49.704;9.908;2023-04-25T04:46:35;11.30;67.40
27671;DHT22;15077;49.704;9.908;2023-04-25T04:49:10;11.30;67.50
27671;DHT22;15077;49.704;9.908;2023-04-25T04:51:37;11.30;67.60
27671;DHT22;15077;49.704;9.908;2023-04-25T04:54:04;11.20;67.20
27671;DHT22;15077;49.704;9.908;2023-04-25T04:56:30;11.20;67.10
27671;DHT22;15077;49.704;9.908;2023-04-25T04:58:59;11.20;67.20
27671;DHT22;15077;49.704;9.908;2023-04-25T05:01:25;11.20;67.20
27671;DHT22;15077;49.704;9.908;2023-04-25T05:03:51;11.20;67.20
27671;DHT22;15077;49.704;9.908;2023-04-25T05:06:20;11.20;67.10
27671;DHT22;15077;49.704;9.908;2023-04-25T05:08:46;11.10;67.20
27671;DHT22;15077;49.704;9.908;2023-04-25T05:11:12;11.10;67.10
27671;DHT22;15077;49.704;9.908;2023-04-25T05:13:38;11.10;67.20
27671;DHT22;15077;49.704;9.908;2023-04-25T05:16:03;11.10;67.20
27671;DHT22;15077;49.704;9.908;2023-04-25T05:18:29;11.10;67.40
27671;DHT22;15077;49.704;9.908;2023-04-25T05:20:55;11.10;67.50
27671;DHT22;15077;49.704;9.908;2023-04-25T05:23:21;11.10;68.00
27671;DHT22;15077;49.704;9.908;2023-04-25T05:25:47;11.00;67.40
27671;DHT22;15077;49.704;9.908;2023-04-25T05:28:13;11.00;67.50
27671;DHT22;15077;49.704;9.908;2023-04-25T05:30:39;11.10;67.60
27671;DHT22;15077;49.704;9.908;2023-04-25T05:33:05;11.10;67.70
27671;DHT22;15077;49.704;9.908;2023-04-25T05:35:30;11.10;67.80
27671;DHT22;15077;49.704;9.908;2023-04-25T05:37:56;11.10;67.80
27671;DHT22;15077;49.704;9.908;2023-04-25T05:40:22;11.10;67.80
27671;DHT22;15077;49.704;9.908;2023-04-25T05:42:48;11.10;67.90
27671;DHT22;15077;49.704;9.908;2023-04-25T05:45:13;11.10;67.90
27671;DHT22;15077;49.704;9.908;2023-04-25T05:47:39;11.10;68.00
27671;DHT22;15077;49.704;9.908;2023-04-25T05:50:06;11.20;68.10
27671;DHT22;15077;49.704;9.908;2023-04-25T05:52:32;11.20;68.10
27671;DHT22;15077;49.704;9.908;2023-04-25T05:54:58;11.20;68.10
27671;DHT22;15077;49.704;9.908;2023-04-25T05:57:25;11.20;68.20
27671;DHT22;15077;49.704;9.908;2023-04-25T05:59:52;11.20;68.10
27671;DHT22;15077;49.704;9.908;2023-04-25T06:02:19;11.20;68.20
27671;DHT22;15077;49.704;9.908;2023-04-25T06:04:51;11.20;68.20
27671;DHT22;15077;49.704;9.908;2023-04-25T06:07:18;11.20;68.30
27671;DHT22;15077;49.704;9.908;2023-04-25T06:09:45;11.30;68.20
27671;DHT22;15077;49.704;9.908;2023-04-25T06:12:11;11.20;68.20
27671;DHT22;15077;49.704;9.908;2023-04-25T06:14:37;11.30;68.20
27671;DHT22;15077;49.704;9.908;2023-04-25T06:17:03;11.30;68.10
27671;DHT22;15077;49.704;9.908;2023-04-25T06:19:34;11.30;68.20
27671;DHT22;15077;49.704;9.908;2023-04-25T06:22:01;11.30;68.20
27671;DHT22;15077;49.704;9.908;2023-04-25T06:24:27;11.30;68.10
27671;DHT22;15077;49.704;9.908;2023-04-25T06:26:54;11.30;68.10
27671;DHT22;15077;49.704;9.908;2023-04-25T06:29:20;11.30;68.20
27671;DHT22;15077;49.704;9.908;2023-04-25T06:31:46;11.40;68.20
27671;DHT22;15077;49.704;9.908;2023-04-25T06:34:12;11.40;68.10
27671;DHT22;15077;49.704;9.908;2023-04-25T06:36:38;11.40;68.10
27671;DHT22;15077;49.704;9.908;2023-04-25T06:39:03;11.50;68.10
27671;DHT22;15077;49.704;9.908;2023-04-25T06:41:29;11.50;68.00
27671;DHT22;15077;49.704;9.908;2023-04-25T06:43:55;11.50;68.00
27671;DHT22;15077;49.704;9.908;2023-04-25T06:46:21;11.50;67.90
27671;DHT22;15077;49.704;9.908;2023-04-25T06:48:47;11.60;68.00
27671;DHT22;15077;49.704;9.908;2023-04-25T06:51:12;11.60;68.00
27671;DHT22;15077;49.704;9.908;2023-04-25T06:53:41;11.60;68.00
27671;DHT22;15077;49.704;9.908;2023-04-25T06:56:06;11.60;68.00
27671;DHT22;15077;49.704;9.908;2023-04-25T06:58:32;11.60;68.00
27671;DHT22;15077;49.704;9.908;2023-04-25T07:00:58;11.70;68.10
27671;DHT22;15077;49.704;9.908;2023-04-25T07:03:24;11.70;68.00
27671;DHT22;15077;49.704;9.908;2023-04-25T07:05:50;11.70;67.70
27671;DHT22;15077;49.704;9.908;2023-04-25T07:08:16;11.80;67.70
27671;DHT22;15077;49.704;9.908;2023-04-25T07:10:42;11.80;67.50
27671;DHT22;15077;49.704;9.908;2023-04-25T07:13:08;11.80;67.40
27671;DHT22;15077;49.704;9.908;2023-04-25T07:15:34;11.80;67.90
27671;DHT22;15077;49.704;9.908;2023-04-25T07:18:00;11.90;67.40
27671;DHT22;15077;49.704;9.908;2023-04-25T07:20:26;11.90;67.30
27671;DHT22;15077;49.704;9.908;2023-04-25T07:22:52;11.90;67.40
27671;DHT22;15077;49.704;9.908;2023-04-25T07:25:19;11.90;67.40
27671;DHT22;15077;49.704;9.908;2023-04-25T07:27:45;11.90;67.40
27671;DHT22;15077;49.704;9.908;2023-04-25T07:30:11;12.00;67.40
27671;DHT22;15077;49.704;9.908;2023-04-25T07:32:38;12.00;67.30
27671;DHT22;15077;49.704;9.908;2023-04-25T07:35:04;12.10;67.20
27671;DHT22;15077;49.704;9.908;2023-04-25T07:37:32;12.10;67.00
27671;DHT22;15077;49.704;9.908;2023-04-25T07:39:59;12.10;66.70
27671;DHT22;15077;49.704;9.908;2023-04-25T07:42:24;12.20;66.50
27671;DHT22;15077;49.704;9.908;2023-04-25T07:44:50;12.20;66.20
27671;DHT22;15077;49.704;9.908;2023-04-25T07:47:17;12.20;65.90
27671;DHT22;15077;49.704;9.908;2023-04-25T07:49:44;12.20;65.70
27671;DHT22;15077;49.704;9.908;2023-04-25T07:52:11;12.20;65.70
27671;DHT22;15077;49.704;9.908;2023-04-25T07:54:37;12.30;65.50
27671;DHT22;15077;49.704;9.908;2023-04-25T07:57:03;12.30;65.40
27671;DHT22;15077;49.704;9.908;2023-04-25T07:59:29;12.30;65.10
27671;DHT22;15077;49.704;9.908;2023-04-25T08:01:54;12.30;64.70
27671;DHT22;15077;49.704;9.908;2023-04-25T08:04:22;12.30;64.60
27671;DHT22;15077;49.704;9.908;2023-04-25T08:06:48;12.30;64.80
27671;DHT22;15077;49.704;9.908;2023-04-25T08:09:13;12.40;64.80
27671;DHT22;15077;49.704;9.908;2023-04-25T08:11:41;12.40;64.80
27671;DHT22;15077;49.704;9.908;2023-04-25T08:14:09;12.40;64.90
27671;DHT22;15077;49.704;9.908;2023-04-25T08:16:35;12.50;64.90
27671;DHT22;15077;49.704;9.908;2023-04-25T08:19:01;12.50;64.20
27671;DHT22;15077;49.704;9.908;2023-04-25T08:21:26;12.60;64.30
27671;DHT22;15077;49.704;9.908;2023-04-25T08:23:52;12.60;63.80
27671;DHT22;15077;49.704;9.908;2023-04-25T08:26:18;12.60;63.80
27671;DHT22;15077;49.704;9.908;2023-04-25T08:28:44;12.70;63.50
27671;DHT22;15077;49.704;9.908;2023-04-25T08:31:10;12.80;63.20
27671;DHT22;15077;49.704;9.908;2023-04-25T08:33:36;12.80;63.20
27671;DHT22;15077;49.704;9.908;2023-04-25T08:36:02;12.80;63.40
27671;DHT22;15077;49.704;9.908;2023-04-25T08:38:28;12.90;63.20
27671;DHT22;15077;49.704;9.908;2023-04-25T08:40:54;12.90;63.20
27671;DHT22;15077;49.704;9.908;2023-04-25T08:43:23;13.00;62.30
27671;DHT22;15077;49.704;9.908;2023-04-25T08:45:53;13.10;62.50
27671;DHT22;15077;49.704;9.908;2023-04-25T08:48:19;13.20;62.70
27671;DHT22;15077;49.704;9.908;2023-04-25T08:50:51;13.30;62.50
27671;DHT22;15077;49.704;9.908;2023-04-25T08:53:31;13.40;62.60
27671;DHT22;15077;49.704;9.908;2023-04-25T08:56:00;13.50;61.70
27671;DHT22;15077;49.704;9.908;2023-04-25T08:58:29;13.50;62.00
27671;DHT22;15077;49.704;9.908;2023-04-25T09:00:56;13.60;62.10
27671;DHT22;15077;49.704;9.908;2023-04-25T09:03:22;13.70;62.30
27671;DHT22;15077;49.704;9.908;2023-04-25T09:05:47;13.80;61.70
27671;DHT22;15077;49.704;9.908;2023-04-25T09:08:13;13.90;62.00
27671;DHT22;15077;49.704;9.908;2023-04-25T09:10:40;14.00;61.70
27671;DHT22;15077;49.704;9.908;2023-04-25T09:13:14;14.00;61.60
27671;DHT22;15077;49.704;9.908;2023-04-25T09:15:48;14.10;61.60
27671;DHT22;15077;49.704;9.908;2023-04-25T09:18:27;14.20;61.60
27671;DHT22;15077;49.704;9.908;2023-04-25T09:21:05;14.30;60.70
27671;DHT22;15077;49.704;9.908;2023-04-25T09:23:44;14.40;60.80
27671;DHT22;15077;49.704;9.908;2023-04-25T09:26:16;14.40;60.40
27671;DHT22;15077;49.704;9.908;2023-04-25T09:28:43;14.50;59.70
27671;DHT22;15077;49.704;9.908;2023-04-25T09:31:12;14.50;59.40
27671;DHT22;15077;49.704;9.908;2023-04-25T09:33:47;14.50;59.20
27671;DHT22;15077;49.704;9.908;2023-04-25T09:36:13;14.50;59.60
27671;DHT22;15077;49.704;9.908;2023-04-25T09:38:44;14.50;59.70
27671;DHT22;15077;49.704;9.908;2023-04-25T09:41:11;14.60;59.60
27671;DHT22;15077;49.704;9.908;2023-04-25T09:43:38;14.70;60.20
27671;DHT22;15077;49.704;9.908;2023-04-25T09:46:09;14.70;59.60
27671;DHT22;15077;49.704;9.908;2023-04-25T09:48:36;14.70;59.50
27671;DHT22;15077;49.704;9.908;2023-04-25T09:51:07;14.70;58.80
27671;DHT22;15077;49.704;9.908;2023-04-25T09:53:38;14.80;58.60
27671;DHT22;15077;49.704;9.908;2023-04-25T09:56:06;14.80;58.50
27671;DHT22;15077;49.704;9.908;2023-04-25T09:58:36;14.80;58.50
27671;DHT22;15077;49.704;9.908;2023-04-25T10:01:04;14.80;58.10
27671;DHT22;15077;49.704;9.908;2023-04-25T10:03:34;14.90;57.80
27671;DHT22;15077;49.704;9.908;2023-04-25T10:06:04;14.90;57.90
27671;DHT22;15077;49.704;9.908;2023-04-25T10:08:35;15.00;58.10
27671;DHT22;15077;49.704;9.908;2023-04-25T10:11:07;15.00;57.50
27671;DHT22;15077;49.704;9.908;2023-04-25T10:13:35;15.10;57.50
27671;DHT22;15077;49.704;9.908;2023-04-25T10:16:03;15.10;57.50
27671;DHT22;15077;49.704;9.908;2023-04-25T10:18:31;15.20;57.30
27671;DHT22;15077;49.704;9.908;2023-04-25T10:21:00;15.20;57.00
27671;DHT22;15077;49.704;9.908;2023-04-25T10:23:30;15.30;57.20
27671;DHT22;15077;49.704;9.908;2023-04-25T10:25:57;15.40;58.00
27671;DHT22;15077;49.704;9.908;2023-04-25T10:28:24;15.40;57.50
27671;DHT22;15077;49.704;9.908;2023-04-25T10:33:40;15.60;57.40
27671;DHT22;15077;49.704;9.908;2023-04-25T10:36:18;15.60;57.10
27671;DHT22;15077;49.704;9.908;2023-04-25T10:38:49;15.60;57.00
27671;DHT22;15077;49.704;9.908;2023-04-25T10:41:18;15.70;56.60
27671;DHT22;15077;49.704;9.908;2023-04-25T10:43:46;15.70;56.50
27671;DHT22;15077;49.704;9.908;2023-04-25T10:46:24;15.80;56.40
27671;DHT22;15077;49.704;9.908;2023-04-25T10:48:54;15.80;56.40
27671;DHT22;15077;49.704;9.908;2023-04-25T10:51:31;15.90;56.30
27671;DHT22;15077;49.704;9.908;2023-04-25T10:54:05;15.90;56.00
27671;DHT22;15077;49.704;9.908;2023-04-25T10:56:36;16.00;55.90
27671;DHT22;15077;49.704;9.908;2023-04-25T10:59:15;16.00;55.10
27671;DHT22;15077;49.704;9.908;2023-04-25T11:01:44;16.00;55.40
27671;DHT22;15077;49.704;9.908;2023-04-25T11:04:32;16.10;55.60
27671;DHT22;15077;49.704;9.908;2023-04-25T11:09:54;16.00;55.20
27671;DHT22;15077;49.704;9.908;2023-04-25T11:12:20;16.10;54.90
27671;DHT22;15077;49.704;9.908;2023-04-25T11:14:45;16.00;55.00
27671;DHT22;15077;49.704;9.908;2023-04-25T11:17:11;16.00;55.20
27671;DHT22;15077;49.704;9.908;2023-04-25T11:19:37;15.90;54.70
27671;DHT22;15077;49.704;9.908;2023-04-25T11:22:03;15.90;54.60
27671;DHT22;15077;49.704;9.908;2023-04-25T11:24:31;15.90;54.60
27671;DHT22;15077;49.704;9.908;2023-04-25T11:27:00;15.90;54.20
27671;DHT22;15077;49.704;9.908;2023-04-25T11:29:28;15.90;53.90
27671;DHT22;15077;49.704;9.908;2023-04-25T11:31:56;15.90;54.40
27671;DHT22;15077;49.704;9.908;2023-04-25T11:34:29;15.90;54.80
27671;DHT22;15077;49.704;9.908;2023-04-25T11:36:56;15.90;54.80
27671;DHT22;15077;49.704;9.908;2023-04-25T11:39:24;15.90;53.50
27671;DHT22;15077;49.704;9.908;2023-04-25T11:41:51;15.90;53.70
27671;DHT22;15077;49.704;9.908;2023-04-25T11:44:18;15.80;52.40
27671;DHT22;15077;49.704;9.908;2023-04-25T11:46:45;15.70;52.50
27671;DHT22;15077;49.704;9.908;2023-04-25T11:49:12;15.70;52.70
27671;DHT22;15077;49.704;9.908;2023-04-25T11:51:42;15.70;52.70
27671;DHT22;15077;49.704;9.908;2023-04-25T11:54:09;15.70;53.20
27671;DHT22;15077;49.704;9.908;2023-04-25T11:56:35;15.70;53.20
27671;DHT22;15077;49.704;9.908;2023-04-25T11:59:03;15.80;52.60
27671;DHT22;15077;49.704;9.908;2023-04-25T12:01:32;15.80;52.20
27671;DHT22;15077;49.704;9.908;2023-04-25T12:04:09;15.80;51.70
27671;DHT22;15077;49.704;9.908;2023-04-25T12:06:47;15.80;52.10
27671;DHT22;15077;49.704;9.908;2023-04-25T12:09:16;15.90;52.30
27671;DHT22;15077;49.704;9.908;2023-04-25T12:11:57;15.90;52.20
27671;DHT22;15077;49.704;9.908;2023-04-25T12:14:29;16.00;52.20
27671;DHT22;15077;49.704;9.908;2023-04-25T12:16:58;16.00;51.90
27671;DHT22;15077;49.704;9.908;2023-04-25T12:19:26;16.10;51.50
27671;DHT22;15077;49.704;9.908;2023-04-25T12:22:00;16.00;51.10
27671;DHT22;15077;49.704;9.908;2023-04-25T12:24:28;16.00;51.40
27671;DHT22;15077;49.704;9.908;2023-04-25T12:27:04;16.00;51.70
27671;DHT22;15077;49.704;9.908;2023-04-25T12:29:32;16.00;51.60
27671;DHT22;15077;49.704;9.908;2023-04-25T12:31:59;16.00;51.90
27671;DHT22;15077;49.704;9.908;2023-04-25T12:34:28;16.00;52.30
27671;DHT22;15077;49.704;9.908;2023-04-25T12:36:54;16.00;51.80
27671;DHT22;15077;49.704;9.908;2023-04-25T12:39:23;16.00;51.30
27671;DHT22;15077;49.704;9.908;2023-04-25T12:41:50;16.00;50.80
27671;DHT22;15077;49.704;9.908;2023-04-25T12:44:20;15.90;51.20
27671;DHT22;15077;49.704;9.908;2023-04-25T12:46:47;15.90;51.00
27671;DHT22;15077;49.704;9.908;2023-04-25T12:49:13;15.90;51.40
27671;DHT22;15077;49.704;9.908;2023-04-25T12:51:40;15.80;50.90
27671;DHT22;15077;49.704;9.908;2023-04-25T12:54:07;15.80;51.20
27671;DHT22;15077;49.704;9.908;2023-04-25T12:56:34;15.70;51.50
27671;DHT22;15077;49.704;9.908;2023-04-25T12:59:01;15.70;51.60
27671;DHT22;15077;49.704;9.908;2023-04-25T13:01:30;15.60;51.30
27671;DHT22;15077;49.704;9.908;2023-04-25T13:03:57;15.60;51.50
27671;DHT22;15077;49.704;9.908;2023-04-25T13:06:22;15.60;51.40
27671;DHT22;15077;49.704;9.908;2023-04-25T13:08:48;15.60;51.40
27671;DHT22;15077;49.704;9.908;2023-04-25T13:11:14;15.50;51.50
27671;DHT22;15077;49.704;9.908;2023-04-25T13:13:40;15.50;51.60
27671;DHT22;15077;49.704;9.908;2023-04-25T13:16:07;15.40;51.70
27671;DHT22;15077;49.704;9.908;2023-04-25T13:18:33;15.40;51.70
27671;DHT22;15077;49.704;9.908;2023-04-25T13:20:59;15.40;51.50
27671;DHT22;15077;49.704;9.908;2023-04-25T13:23:27;15.40;52.00
27671;DHT22;15077;49.704;9.908;2023-04-25T13:25:55;15.40;52.40
27671;DHT22;15077;49.704;9.908;2023-04-25T13:28:26;15.40;52.40
27671;DHT22;15077;49.704;9.908;2023-04-25T13:30:52;15.40;52.10
27671;DHT22;15077;49.704;9.908;2023-04-25T13:33:19;15.40;51.90
27671;DHT22;15077;49.704;9.908;2023-04-25T13:35:45;15.40;51.70
27671;DHT22;15077;49.704;9.908;2023-04-25T13:38:22;15.40;52.10
27671;DHT22;15077;49.704;9.908;2023-04-25T13:40:49;15.40;52.30
27671;DHT22;15077;49.704;9.908;2023-04-25T13:43:18;15.40;52.10
27671;DHT22;15077;49.704;9.908;2023-04-25T13:45:48;15.40;52.00
27671;DHT22;15077;49.704;9.908;2023-04-25T13:48:14;15.40;51.80
27671;DHT22;15077;49.704;9.908;2023-04-25T13:50:40;15.50;52.20
27671;DHT22;15077;49.704;9.908;2023-04-25T13:53:07;15.50;52.00
27671;DHT22;15077;49.704;9.908;2023-04-25T13:55:34;15.60;51.90
27671;DHT22;15077;49.704;9.908;2023-04-25T13:58:02;15.60;51.50
27671;DHT22;15077;49.704;9.908;2023-04-25T14:00:34;15.60;51.50
27671;DHT22;15077;49.704;9.908;2023-04-25T14:03:03;15.70;51.40
27671;DHT22;15077;49.704;9.908;2023-04-25T14:05:32;15.70;51.10
27671;DHT22;15077;49.704;9.908;2023-04-25T14:08:04;15.70;51.10
27671;DHT22;15077;49.704;9.908;2023-04-25T14:10:35;15.70;51.10
27671;DHT22;15077;49.704;9.908;2023-04-25T14:13:01;15.60;50.90
27671;DHT22;15077;49.704;9.908;2023-04-25T14:15:29;15.60;51.20
27671;DHT22;15077;49.704;9.908;2023-04-25T14:17:55;15.60;51.00
27671;DHT22;15077;49.704;9.908;2023-04-25T14:20:21;15.60;50.60
27671;DHT22;15077;49.704;9.908;2023-04-25T14:22:49;15.50;50.50
27671;DHT22;15077;49.704;9.908;2023-04-25T14:25:15;15.50;51.10
27671;DHT22;15077;49.704;9.908;2023-04-25T14:27:41;15.40;51.30
27671;DHT22;15077;49.704;9.908;2023-04-25T14:30:07;15.40;51.60
27671;DHT22;15077;49.704;9.908;2023-04-25T14:32:34;15.40;51.50
27671;DHT22;15077;49.704;9.908;2023-04-25T14:35:00;15.40;51.60
27671;DHT22;15077;49.704;9.908;2023-04-25T14:37:26;15.40;51.70
27671;DHT22;15077;49.704;9.908;2023-04-25T14:39:51;15.40;51.50
27671;DHT22;15077;49.704;9.908;2023-04-25T14:42:17;15.40;51.60
27671;DHT22;15077;49.704;9.908;2023-04-25T14:44:43;15.40;51.70
27671;DHT22;15077;49.704;9.908;2023-04-25T14:47:09;15.40;51.60
27671;DHT22;15077;49.704;9.908;2023-04-25T14:49:34;15.50;51.70
27671;DHT22;15077;49.704;9.908;2023-04-25T14:52:00;15.50;51.00
27671;DHT22;15077;49.704;9.908;2023-04-25T14:54:26;15.50;50.90
27671;DHT22;15077;49.704;9.908;2023-04-25T14:56:52;15.50;50.50
27671;DHT22;15077;49.704;9.908;2023-04-25T14:59:17;15.40;50.70
27671;DHT22;15077;49.704;9.908;2023-04-25T15:01:45;15.40;50.30
27671;DHT22;15077;49.704;9.908;2023-04-25T15:04:11;15.40;50.90
27671;DHT22;15077;49.704;9.908;2023-04-25T15:06:39;15.40;51.60
27671;DHT22;15077;49.704;9.908;2023-04-25T15:09:05;15.40;50.70
27671;DHT22;15077;49.704;9.908;2023-04-25T15:11:30;15.40;50.50
27671;DHT22;15077;49.704;9.908;2023-04-25T15:13:56;15.40;50.80
27671;DHT22;15077;49.704;9.908;2023-04-25T15:16:22;15.30;50.80
27671;DHT22;15077;49.704;9.908;2023-04-25T15:18:48;15.30;50.80
27671;DHT22;15077;49.704;9.908;2023-04-25T15:21:14;15.30;50.80
27671;DHT22;15077;49.704;9.908;2023-04-25T15:23:40;15.30;50.90
27671;DHT22;15077;49.704;9.908;2023-04-25T15:26:05;15.30;50.60
27671;DHT22;15077;49.704;9.908;2023-04-25T15:28:31;15.30;50.80
27671;DHT22;15077;49.704;9.908;2023-04-25T15:30:59;15.30;50.80
27671;DHT22;15077;49.704;9.908;2023-04-25T15:33:25;15.20;51.10
27671;DHT22;15077;49.704;9.908;2023-04-25T15:35:51;15.20;51.30
27671;DHT22;15077;49.704;9.908;2023-04-25T15:38:16;15.20;51.30